Time;durP1;ratioP1;P1;durP2;ratioP2;P2;SDS_P1;SDS_P2;PMS_P1;PMS_P2;Temp;Humidity;BMP_temperature;BMP_pressure;BME280_temperature;BME280_humidity;BME280_pressure;Samples;Min_cycle;Max_cycle;Signal;HPM_P1;HPM_P2
2020/12/19 00:00:13;;;;;;;105.10;53.20;;;;;;;1.45;86.98;100080.96;124842;1100;65162;-84
2020/12/19 00:02:59;;;;;;;108.97;51.40;;;;;;;1.48;86.72;100086.17;124967;1098;65357;-82
2020/12/19 00:05:26;;;;;;;109.73;52.17;;;;;;;1.50;86.58;100078.25;124884;1100;65137;-82
2020/12/19 00:07:52;;;;;;;102.90;52.00;;;;;;;1.47;87.24;100076.53;125307;1098;65291;-83
2020/12/19 00:10:19;;;;;;;90.37;49.77;;;;;;;1.45;86.85;100075.70;125294;1099;65630;-84
2020/12/19 00:12:45;;;;;;;92.50;49.47;;;;;;;1.51;87.13;100074.76;124840;1100;65166;-82
2020/12/19 00:15:16;;;;;;;85.00;48.20;;;;;;;1.59;87.17;100074.66;125352;1098;65179;-82
2020/12/19 00:17:44;;;;;;;81.97;46.13;;;;;;;1.61;86.96;100072.89;124875;1099;65175;-82
2020/12/19 00:20:10;;;;;;;92.80;47.20;;;;;;;1.63;86.88;100079.83;124844;1099;65200;-82
2020/12/19 00:22:37;;;;;;;90.90;46.50;;;;;;;1.61;86.80;100071.13;125338;1098;65134;-82
2020/12/19 00:25:04;;;;;;;87.37;45.30;;;;;;;1.59;87.27;100074.66;125344;1098;65242;-82
2020/12/19 00:27:31;;;;;;;90.90;44.80;;;;;;;1.60;87.09;100077.25;125353;1098;65155;-82
2020/12/19 00:29:58;;;;;;;77.47;42.77;;;;;;;1.61;87.10;100070.27;125295;1098;65083;-82
2020/12/19 00:32:24;;;;;;;71.93;41.43;;;;;;;1.61;86.95;100070.27;125244;1098;65140;-82
2020/12/19 00:34:51;;;;;;;82.80;50.00;;;;;;;1.68;87.24;100070.13;125335;1098;65182;-82
2020/12/19 00:37:17;;;;;;;80.30;50.30;;;;;;;1.71;87.09;100075.38;124915;1098;65153;-82
2020/12/19 00:39:43;;;;;;;75.95;47.00;;;;;;;1.66;86.87;100069.31;125279;1099;65176;-82
2020/12/19 00:42:10;;;;;;;83.33;45.80;;;;;;;1.72;87.17;100076.23;125342;1098;65162;-82
2020/12/19 00:44:36;;;;;;;82.37;44.50;;;;;;;1.73;87.12;100070.94;124857;1099;65297;-82
2020/12/19 00:47:03;;;;;;;85.97;46.00;;;;;;;1.75;87.01;100074.42;125311;1098;65210;-82
2020/12/19 00:49:29;;;;;;;77.65;40.90;;;;;;;1.73;87.09;100070.08;125270;1100;65220;-82
2020/12/19 00:51:56;;;;;;;70.62;38.58;;;;;;;1.73;86.68;100075.33;125312;1098;65137;-82
2020/12/19 00:54:22;;;;;;;60.40;34.57;;;;;;;1.71;86.85;100071.84;124939;1100;65143;-84
2020/12/19 00:56:52;;;;;;;57.30;32.70;;;;;;;1.72;87.04;100071.84;126362;1098;65156;-83
2020/12/19 00:59:19;;;;;;;54.80;32.20;;;;;;;1.72;86.76;100065.73;125328;1098;65178;-84
2020/12/19 01:01:46;;;;;;;55.87;33.47;;;;;;;1.74;87.12;100071.84;124853;1100;65158;-83
2020/12/19 01:04:13;;;;;;;60.80;34.33;;;;;;;1.77;86.98;100074.42;125326;1098;65098;-83
2020/12/19 01:06:41;;;;;;;67.40;35.15;;;;;;;1.79;87.06;100063.86;125335;1098;65192;-83
2020/12/19 01:09:08;;;;;;;61.20;34.15;;;;;;;1.80;87.29;100062.99;125268;1099;65311;-83
2020/12/19 01:11:36;;;;;;;58.47;32.70;;;;;;;1.78;86.99;100075.28;125276;1098;65124;-83
2020/12/19 01:14:05;;;;;;;62.33;35.77;;;;;;;1.77;86.97;100077.05;125399;1098;65157;-83
2020/12/19 01:16:32;;;;;;;64.35;35.85;;;;;;;1.72;86.67;100078.86;124889;1100;65188;-83
2020/12/19 01:19:04;;;;;;;66.60;35.57;;;;;;;1.71;86.75;100080.63;124873;1100;65224;-83
2020/12/19 01:21:31;;;;;;;61.70;32.13;;;;;;;1.69;86.98;100079.77;125289;1098;65352;-83
2020/12/19 01:23:59;;;;;;;64.20;33.97;;;;;;;1.68;87.02;100085.90;125336;1098;65153;-83
2020/12/19 01:26:26;;;;;;;63.97;34.50;;;;;;;1.67;86.92;100081.55;125292;1098;65186;-83
2020/12/19 01:28:52;;;;;;;69.07;35.00;;;;;;;1.65;87.04;100085.08;124902;1100;65275;-83
2020/12/19 01:31:21;;;;;;;69.33;35.10;;;;;;;1.64;86.69;100084.22;124889;1098;65214;-83
2020/12/19 01:33:48;;;;;;;60.83;35.53;;;;;;;1.61;86.76;100076.38;124924;1099;65189;-83
2020/12/19 01:36:21;;;;;;;57.07;35.20;;;;;;;1.60;86.86;100073.77;125312;1098;65156;-83
2020/12/19 01:38:49;;;;;;;59.70;36.60;;;;;;;1.59;87.16;100066.78;124833;1098;65159;-83
2020/12/19 01:41:15;;;;;;;63.93;35.90;;;;;;;1.58;86.51;100067.65;125311;1098;65181;-84
2020/12/19 01:43:44;;;;;;;59.20;34.90;;;;;;;1.59;86.86;100058.90;125332;1098;65150;-83
2020/12/19 01:46:11;;;;;;;62.50;34.63;;;;;;;1.61;87.51;100055.36;124876;1100;65304;-83
2020/12/19 01:48:39;;;;;;;63.70;34.25;;;;;;;1.60;87.15;100055.37;125314;1099;65173;-83
2020/12/19 01:51:05;;;;;;;67.37;33.53;;;;;;;1.58;86.62;100059.77;124885;1100;65082;-83
2020/12/19 01:53:32;;;;;;;64.37;31.23;;;;;;;1.55;87.13;100063.30;125343;1099;65159;-83
2020/12/19 01:55:59;;;;;;;59.73;33.57;;;;;;;1.56;87.44;100059.81;124921;1098;65361;-83
2020/12/19 01:58:27;;;;;;;55.13;31.07;;;;;;;1.56;87.31;100054.55;125278;1098;65214;-83
2020/12/19 02:00:58;;;;;;;49.60;26.90;;;;;;;1.54;86.83;100048.44;125290;1098;65080;-83
2020/12/19 02:03:24;;;;;;;46.85;28.65;;;;;;;1.51;86.62;100049.35;125308;1098;65083;-83
2020/12/19 02:05:52;;;;;;;54.37;29.67;;;;;;;1.49;87.02;100047.63;125288;1098;65697;-83
2020/12/19 02:08:19;;;;;;;55.67;30.67;;;;;;;1.46;87.04;100053.80;124920;1100;65255;-83
2020/12/19 02:10:46;;;;;;;62.00;30.70;;;;;;;1.44;87.15;100044.20;124828;1100;65621;-83
2020/12/19 02:13:12;;;;;;;54.73;29.57;;;;;;;1.42;87.16;100038.98;125320;1098;65178;-83
2020/12/19 02:15:44;;;;;;;52.10;28.87;;;;;;;1.39;87.01;100036.37;124886;1100;65144;-83
2020/12/19 02:18:11;;;;;;;46.60;26.70;;;;;;;1.38;86.71;100023.27;125331;1098;65207;-83
2020/12/19 02:20:38;;;;;;;45.43;26.77;;;;;;;1.40;86.93;100018.88;124848;1098;65230;-83
2020/12/19 02:23:07;;;;;;;42.00;26.67;;;;;;;1.41;87.32;100015.34;125303;1098;65190;-83
2020/12/19 02:25:36;;;;;;;50.67;27.33;;;;;;;1.44;87.15;100005.66;124891;1100;65227;-83
2020/12/19 02:28:08;;;;;;;54.63;28.90;;;;;;;1.43;86.94;100013.58;124925;1100;65154;-83
2020/12/19 02:30:39;;;;;;;52.90;27.10;;;;;;;1.39;86.71;100011.87;125317;1098;65193;-83
2020/12/19 02:33:05;;;;;;;52.30;27.10;;;;;;;1.37;87.17;100009.28;125306;1098;65141;-83
2020/12/19 02:35:31;;;;;;;52.03;28.23;;;;;;;1.36;86.79;100009.29;125312;1098;65336;-83
2020/12/19 02:38:01;;;;;;;45.47;26.30;;;;;;;1.33;86.55;100002.31;124893;1099;65168;-83
2020/12/19 02:40:28;;;;;;;38.00;24.20;;;;;;;1.32;86.58;100018.97;124887;1100;65253;-83
2020/12/19 02:42:54;;;;;;;44.50;25.33;;;;;;;1.28;86.85;100010.25;125336;1098;65131;-83
2020/12/19 02:45:21;;;;;;;52.47;28.87;;;;;;;1.28;86.60;100014.63;124888;1098;65181;-83
2020/12/19 02:47:48;;;;;;;57.63;26.17;;;;;;;1.28;86.80;100017.27;125238;1098;65140;-83
2020/12/19 02:50:14;;;;;;;49.23;26.93;;;;;;;1.25;87.06;100023.42;125301;1098;65141;-83
2020/12/19 02:52:40;;;;;;;55.67;25.40;;;;;;;1.22;87.07;100020.84;124863;1099;65143;-83
2020/12/19 02:55:07;;;;;;;46.80;24.95;;;;;;;1.13;86.93;100020.94;125337;1098;65469;-83
2020/12/19 02:57:34;;;;;;;45.90;26.35;;;;;;;1.05;86.35;100015.80;125319;1099;65124;-83
2020/12/19 03:00:00;;;;;;;47.53;25.57;;;;;;;1.02;86.74;100021.06;125323;1098;65294;-83
2020/12/19 03:02:47;;;;;;;41.40;23.77;;;;;;;1.02;86.43;100010.56;124991;1100;65239;-82
2020/12/19 03:05:13;;;;;;;42.67;24.83;;;;;;;1.03;87.01;100007.07;125298;1098;65179;-84
2020/12/19 03:07:39;;;;;;;41.07;25.00;;;;;;;1.10;86.85;100008.71;125370;1098;65148;-83
2020/12/19 03:10:06;;;;;;;42.33;25.30;;;;;;;1.17;87.46;100006.90;124925;1098;65195;-84
2020/12/19 03:12:33;;;;;;;54.97;27.17;;;;;;;1.21;86.95;100003.36;125241;1098;65293;-84
2020/12/19 03:14:59;;;;;;;47.67;28.13;;;;;;;1.19;86.51;99999.02;125385;1098;65179;-83
2020/12/19 03:17:25;;;;;;;42.33;25.97;;;;;;;1.18;87.04;100000.75;125266;1098;65179;-84
2020/12/19 03:19:52;;;;;;;46.87;27.20;;;;;;;1.17;86.59;100004.27;125296;1098;65155;-84
2020/12/19 03:22:18;;;;;;;50.87;29.87;;;;;;;1.12;86.50;99999.97;125332;1098;65224;-82
2020/12/19 03:24:45;;;;;;;51.20;28.63;;;;;;;1.08;86.49;100000.02;125294;1099;65179;-82
2020/12/19 03:27:11;;;;;;;52.70;30.77;;;;;;;1.09;87.10;100000.88;124916;1098;65252;-84
2020/12/19 03:29:37;;;;;;;57.60;30.60;;;;;;;1.09;86.87;99993.00;124898;1100;65233;-84
2020/12/19 03:32:04;;;;;;;64.73;29.93;;;;;;;1.10;86.73;99994.72;125305;1098;65543;-84
2020/12/19 03:34:30;;;;;;;47.73;27.30;;;;;;;1.08;86.53;99993.90;125276;1098;65137;-84
2020/12/19 03:36:57;;;;;;;45.30;27.10;;;;;;;1.05;87.09;99986.03;125345;1098;65283;-83
2020/12/19 03:39:23;;;;;;;50.30;30.70;;;;;;;1.00;86.63;99978.24;125290;1098;65143;-84
2020/12/19 03:41:49;;;;;;;46.70;27.80;;;;;;;1.04;87.15;99979.06;125332;1098;65154;-84
2020/12/19 03:44:16;;;;;;;44.93;27.37;;;;;;;1.03;86.56;99972.09;124896;1098;65153;-82
2020/12/19 03:46:42;;;;;;;50.97;29.37;;;;;;;1.05;86.72;99975.53;125235;1098;65180;-82
2020/12/19 03:49:09;;;;;;;51.47;28.67;;;;;;;1.03;86.97;99964.21;124869;1100;65319;-82
2020/12/19 03:51:35;;;;;;;61.07;29.20;;;;;;;1.00;86.58;99964.22;124944;1100;65169;-82
2020/12/19 03:54:01;;;;;;;55.00;28.33;;;;;;;0.95;86.26;99959.05;124861;1100;65146;-82
2020/12/19 03:56:28;;;;;;;49.85;28.25;;;;;;;0.90;87.08;99960.86;124913;1098;65178;-82
2020/12/19 03:58:54;;;;;;;42.53;25.63;;;;;;;0.90;86.73;99952.99;125242;1098;65255;-82
2020/12/19 04:01:20;;;;;;;41.05;24.00;;;;;;;0.87;86.87;99956.52;125338;1098;65127;-82
2020/12/19 04:03:47;;;;;;;42.27;26.77;;;;;;;0.87;87.26;99946.02;125308;1098;65134;-82
2020/12/19 04:06:13;;;;;;;45.90;26.90;;;;;;;0.85;86.66;99939.92;124892;1100;65115;-82
2020/12/19 04:08:40;;;;;;;50.60;28.05;;;;;;;0.83;86.54;99939.06;124846;1100;65268;-82
2020/12/19 04:11:07;;;;;;;59.70;29.30;;;;;;;0.85;86.67;99937.30;125298;1100;65159;-82
2020/12/19 04:13:33;;;;;;;50.10;25.60;;;;;;;0.85;86.80;99942.55;125309;1098;65166;-82
2020/12/19 04:15:59;;;;;;;48.47;26.47;;;;;;;0.79;86.96;99936.48;125316;1098;65109;-82
2020/12/19 04:18:26;;;;;;;39.08;22.32;;;;;;;0.71;86.25;99935.71;125291;1098;65175;-83
2020/12/19 04:20:53;;;;;;;41.57;24.17;;;;;;;0.57;86.78;99934.13;124912;1098;65227;-82
2020/12/19 04:23:19;;;;;;;40.30;24.40;;;;;;;0.58;86.96;99929.73;125310;1098;65239;-82
2020/12/19 04:25:46;;;;;;;39.53;23.07;;;;;;;0.60;86.92;99927.97;125334;1098;65114;-82
2020/12/19 04:28:12;;;;;;;41.18;23.42;;;;;;;0.66;86.79;99925.30;124883;1100;65224;-82
2020/12/19 04:30:39;;;;;;;42.33;23.17;;;;;;;0.72;87.35;99925.22;125314;1100;65147;-82
2020/12/19 04:33:05;;;;;;;46.83;23.37;;;;;;;0.72;87.19;99919.11;124858;1100;65210;-82
2020/12/19 04:35:32;;;;;;;42.60;23.00;;;;;;;0.72;86.93;99916.48;125301;1099;65155;-82
2020/12/19 04:37:59;;;;;;;41.30;22.77;;;;;;;0.77;87.56;99917.30;124917;1100;65255;-82
2020/12/19 04:40:26;;;;;;;43.10;25.20;;;;;;;0.80;87.36;99920.73;125273;1098;65591;-82
2020/12/19 04:42:53;;;;;;;43.00;24.50;;;;;;;0.81;86.96;99914.59;125302;1098;65166;-82
2020/12/19 04:45:19;;;;;;;38.67;22.77;;;;;;;0.81;86.86;99908.48;124862;1100;65239;-82
2020/12/19 04:47:46;;;;;;;41.80;24.23;;;;;;;0.85;87.23;99913.68;125283;1098;65284;-82
2020/12/19 04:50:13;;;;;;;46.73;25.17;;;;;;;0.86;87.01;99922.41;125308;1098;65191;-82
2020/12/19 04:52:39;;;;;;;55.35;28.70;;;;;;;0.92;86.81;99927.58;125321;1098;65185;-82
2020/12/19 04:55:06;;;;;;;52.43;24.77;;;;;;;0.96;87.21;99923.17;124884;1098;65355;-82
2020/12/19 04:57:33;;;;;;;43.25;23.40;;;;;;;0.97;86.92;99925.77;125316;1098;65175;-82
2020/12/19 04:59:59;;;;;;;40.17;24.23;;;;;;;0.90;86.49;99929.38;124878;1100;65203;-82
2020/12/19 05:02:27;;;;;;;40.53;24.50;;;;;;;0.88;86.61;99929.38;125289;1098;65277;-82
2020/12/19 05:04:53;;;;;;;41.00;22.97;;;;;;;0.85;86.79;99929.42;125313;1098;65157;-82
2020/12/19 05:07:19;;;;;;;42.35;25.25;;;;;;;0.77;86.71;99936.53;125305;1100;65235;-82
2020/12/19 05:09:46;;;;;;;45.60;24.35;;;;;;;0.78;87.12;99930.38;125287;1098;65105;-82
2020/12/19 05:12:13;;;;;;;47.08;24.90;;;;;;;0.76;86.44;99941.78;124888;1100;65242;-83
2020/12/19 05:14:40;;;;;;;59.13;25.60;;;;;;;0.65;86.79;99923.54;124888;1100;65242;-82
2020/12/19 05:17:06;;;;;;;55.63;26.20;;;;;;;0.60;86.64;99930.59;124889;1100;65133;-83
2020/12/19 05:19:34;;;;;;;48.70;26.75;;;;;;;0.53;86.57;99928.95;124941;1100;65230;-82
2020/12/19 05:22:00;;;;;;;46.33;25.27;;;;;;;0.49;87.35;99930.72;125267;1098;65191;-87
2020/12/19 05:24:34;;;;;;;41.80;22.93;;;;;;;0.46;86.53;99932.52;124944;1100;65306;-82
2020/12/19 05:27:03;;;;;;;41.60;21.93;;;;;;;0.42;87.01;99935.17;124942;1100;65235;-82
2020/12/19 05:29:32;;;;;;;49.60;25.00;;;;;;;0.44;87.24;99932.52;124864;1100;65234;-83
2020/12/19 05:32:00;;;;;;;50.50;24.20;;;;;;;0.46;87.35;99938.63;124886;1100;65140;-83
2020/12/19 05:34:28;;;;;;;51.70;26.33;;;;;;;0.45;87.13;99934.28;124838;1100;65127;-83
2020/12/19 05:36:56;;;;;;;68.00;28.10;;;;;;;0.42;87.24;99929.93;125300;1098;65303;-83
2020/12/19 05:39:22;;;;;;;45.77;25.00;;;;;;;0.51;87.53;99933.34;125286;1098;66228;-83
2020/12/19 05:41:49;;;;;;;47.00;26.17;;;;;;;0.53;87.41;99942.92;124913;1099;65249;-83
2020/12/19 05:44:21;;;;;;;46.20;26.10;;;;;;;0.51;87.26;99949.94;124885;1099;65575;-83
2020/12/19 05:46:48;;;;;;;49.40;27.23;;;;;;;0.53;87.22;99949.93;124839;1100;65208;-83
2020/12/19 05:49:16;;;;;;;49.40;26.93;;;;;;;0.56;87.30;99944.64;125294;1098;65408;-83
2020/12/19 05:51:43;;;;;;;53.73;27.07;;;;;;;0.57;87.56;99947.23;124919;1100;65201;-83
2020/12/19 05:54:15;;;;;;;51.80;25.60;;;;;;;0.63;87.04;99954.16;124868;1100;65206;-83
2020/12/19 05:56:44;;;;;;;58.50;27.20;;;;;;;0.68;87.93;99949.73;125304;1099;65226;-83
2020/12/19 05:59:15;;;;;;;51.35;27.60;;;;;;;0.68;87.53;99954.12;125302;1100;65509;-83
2020/12/19 06:01:45;;;;;;;49.23;26.50;;;;;;;0.67;87.28;99949.77;124821;1100;65255;-83
2020/12/19 06:04:14;;;;;;;37.97;23.57;;;;;;;0.72;87.69;99956.70;124833;1100;65173;-83
2020/12/19 06:06:45;;;;;;;44.50;24.77;;;;;;;0.79;87.61;99953.13;124844;1100;65223;-83
2020/12/19 06:09:14;;;;;;;48.17;24.87;;;;;;;0.85;87.66;99952.17;124870;1100;65208;-83
2020/12/19 06:12:06;;;;;;;53.10;28.23;;;;;;;0.88;87.60;99955.63;125344;1098;65188;-83
2020/12/19 06:14:41;;;;;;;58.13;28.23;;;;;;;0.91;87.11;99953.86;124880;1100;65182;-83
2020/12/19 06:17:19;;;;;;;55.43;27.20;;;;;;;0.92;87.14;99956.44;125353;1098;65153;-83
2020/12/19 06:19:48;;;;;;;51.93;28.47;;;;;;;0.92;87.32;99969.56;125325;1099;65154;-83
2020/12/19 06:22:14;;;;;;;47.57;26.70;;;;;;;0.94;87.11;99966.94;125306;1098;65153;-83
2020/12/19 06:24:41;;;;;;;57.97;32.93;;;;;;;0.90;86.96;99962.63;124898;1100;65111;-83
2020/12/19 06:27:22;;;;;;;61.23;33.33;;;;;;;0.89;86.87;99964.36;125246;1100;65301;-83
2020/12/19 06:29:50;;;;;;;60.40;33.00;;;;;;;0.90;87.36;99978.37;124934;1098;65207;-83
2020/12/19 06:32:22;;;;;;;71.47;41.17;;;;;;;0.88;87.34;99967.88;124895;1100;65476;-83
2020/12/19 06:35:04;;;;;;;79.70;43.53;;;;;;;0.88;86.89;99976.62;125334;1099;65514;-83
2020/12/19 06:37:33;;;;;;;71.83;37.33;;;;;;;0.93;87.10;99980.95;125329;1098;65296;-83
2020/12/19 06:40:13;;;;;;;61.10;33.37;;;;;;;0.94;87.46;99977.43;125310;1099;65130;-83
2020/12/19 06:42:41;;;;;;;51.10;28.53;;;;;;;0.93;87.18;99983.58;125276;1098;65079;-83
2020/12/19 06:45:30;;;;;;;58.60;32.07;;;;;;;0.93;86.83;99989.69;125344;1100;65162;-83
2020/12/19 06:48:00;;;;;;;70.53;44.80;;;;;;;0.95;87.26;99998.42;125324;1098;65166;-83
2020/12/19 06:50:46;;;;;;;;;;;;;;;0.98;86.83;99997.52;125330;1099;65156;-83
2020/12/19 06:53:16;;;;;;;79.17;42.77;;;;;;;0.98;87.22;100001.01;124811;1100;65182;-83
2020/12/19 06:55:42;;;;;;;77.85;40.52;;;;;;;0.93;86.93;100002.81;124849;1100;65171;-83
2020/12/19 06:58:09;;;;;;;71.20;36.00;;;;;;;0.91;86.97;100011.59;125312;1098;65241;-83
2020/12/19 07:00:35;;;;;;;65.65;35.65;;;;;;;0.88;87.40;100008.11;124888;1099;65226;-83
2020/12/19 07:03:04;;;;;;;63.77;33.97;;;;;;;0.91;86.61;100011.59;125270;1098;65181;-83
2020/12/19 07:05:34;;;;;;;64.00;34.63;;;;;;;0.94;87.31;100011.55;125303;1098;65123;-83
2020/12/19 07:08:18;;;;;;;66.67;36.35;;;;;;;0.96;87.23;100001.91;125322;1098;65173;-83
2020/12/19 07:10:46;;;;;;;69.17;37.07;;;;;;;1.00;86.85;100004.48;124927;1100;65085;-83
2020/12/19 07:13:13;;;;;;;78.90;37.53;;;;;;;1.03;87.15;100003.58;125314;1098;65153;-82
2020/12/19 07:15:51;;;;;;;79.43;40.70;;;;;;;1.02;86.63;100007.08;124902;1098;65165;-83
2020/12/19 07:18:34;;;;;;;68.00;37.00;;;;;;;1.04;86.73;100014.05;125281;1099;65156;-83
2020/12/19 07:21:05;;;;;;;70.90;36.70;;;;;;;1.03;86.88;100004.45;124904;1100;65182;-83
2020/12/19 07:23:33;;;;;;;73.93;45.17;;;;;;;1.05;87.02;100007.93;124840;1099;65150;-83
2020/12/19 07:26:01;;;;;;;65.53;37.30;;;;;;;1.09;87.01;100001.73;124869;1100;65227;-82
2020/12/19 07:28:28;;;;;;;76.83;39.87;;;;;;;1.16;86.98;100005.17;125327;1098;65153;-83
2020/12/19 07:30:55;;;;;;;69.00;37.40;;;;;;;1.21;86.66;100010.34;124810;1100;65162;-83
2020/12/19 07:33:22;;;;;;;74.73;39.47;;;;;;;1.21;86.90;100003.36;124878;1100;65268;-83
2020/12/19 07:35:49;;;;;;;84.10;44.57;;;;;;;1.21;86.63;100003.36;124791;1100;65141;-83
2020/12/19 07:38:19;;;;;;;76.23;43.60;;;;;;;1.24;87.23;99994.58;124821;1100;65185;-83
2020/12/19 07:40:53;;;;;;;77.00;42.67;;;;;;;1.25;86.35;99999.78;124828;1099;65141;-82
2020/12/19 07:43:22;;;;;;;79.23;44.93;;;;;;;1.27;86.43;100003.27;124827;1099;65152;-83
2020/12/19 07:45:55;;;;;;;73.15;42.70;;;;;;;1.31;86.25;100001.45;124830;1099;65616;-82
2020/12/19 07:48:21;;;;;;;78.35;43.55;;;;;;;1.33;86.42;100001.45;124953;1100;65136;-83
2020/12/19 07:50:48;;;;;;;79.70;42.30;;;;;;;1.31;86.50;99999.70;124904;1100;65200;-83
2020/12/19 07:53:14;;;;;;;78.27;40.77;;;;;;;1.32;86.29;100003.22;125314;1099;65170;-84
2020/12/19 07:55:49;;;;;;;80.10;43.70;;;;;;;1.37;86.71;99995.25;124805;1100;65262;-84
2020/12/19 07:58:19;;;;;;;66.10;36.40;;;;;;;1.38;86.44;99991.76;124824;1100;65176;-84
2020/12/19 08:00:45;;;;;;;60.67;32.17;;;;;;;1.42;86.37;99996.06;124884;1100;65133;-84
2020/12/19 08:03:12;;;;;;;59.60;33.00;;;;;;;1.45;86.87;99993.39;124859;1100;65241;-84
2020/12/19 08:05:39;;;;;;;54.50;32.05;;;;;;;1.49;86.29;99997.72;124806;1100;65144;-84
2020/12/19 08:08:05;;;;;;;64.37;35.43;;;;;;;1.51;86.46;99988.94;124806;1100;65134;-84
2020/12/19 08:10:31;;;;;;;68.10;35.37;;;;;;;1.57;86.11;99990.59;124810;1099;65137;-84
2020/12/19 08:13:00;;;;;;;67.10;36.67;;;;;;;1.63;86.09;99997.52;124819;1100;65153;-84
2020/12/19 08:15:27;;;;;;;65.10;35.55;;;;;;;1.65;86.24;99988.73;124854;1100;65115;-84
2020/12/19 08:17:58;;;;;;;75.70;36.67;;;;;;;1.65;86.35;99986.09;124911;1100;65214;-84
2020/12/19 08:20:33;;;;;;;72.80;36.50;;;;;;;1.66;86.40;99989.59;124867;1100;65246;-83
2020/12/19 08:23:06;;;;;;;63.53;32.33;;;;;;;1.70;85.88;99988.67;124944;1100;65136;-83
2020/12/19 08:25:35;;;;;;;51.20;29.73;;;;;;;1.75;86.42;99987.70;124817;1100;65153;-83
2020/12/19 08:28:01;;;;;;;57.00;30.07;;;;;;;1.80;86.19;99990.27;124835;1101;65233;-84
2020/12/19 08:30:30;;;;;;;52.20;28.65;;;;;;;1.83;85.82;99987.59;124842;1101;65250;-85
2020/12/19 08:33:05;;;;;;;56.47;29.77;;;;;;;1.85;85.98;100001.58;124792;1101;65245;-84
2020/12/19 08:35:36;;;;;;;59.97;35.87;;;;;;;1.81;85.38;99999.88;124883;1101;65255;-85
2020/12/19 08:38:15;;;;;;;65.73;34.27;;;;;;;1.80;85.59;99995.52;124807;1101;65192;-86
2020/12/19 08:40:46;;;;;;;58.03;32.40;;;;;;;1.81;85.98;99999.02;124788;1101;65168;-86
2020/12/19 08:43:15;;;;;;;55.77;31.47;;;;;;;1.83;85.65;100003.36;124921;1101;65131;-85
2020/12/19 08:45:44;;;;;;;56.07;31.07;;;;;;;1.89;86.05;100002.39;124830;1101;65159;-86
2020/12/19 08:48:17;;;;;;;52.20;31.67;;;;;;;1.95;85.61;99999.69;124772;1101;65345;-85
2020/12/19 08:50:45;;;;;;;55.37;34.00;;;;;;;2.00;85.65;100008.34;124806;1101;65729;-84
2020/12/19 08:53:25;;;;;;;49.63;32.63;;;;;;;1.97;85.17;100005.77;124781;1101;65159;-85
2020/12/19 08:55:52;;;;;;;;;;;;;;;2.00;85.42;100007.48;124826;1101;65182;-85
2020/12/19 08:58:27;;;;;;;58.33;36.93;;;;;;;2.04;85.70;100003.92;124811;1101;65137;-85
2020/12/19 09:00:56;;;;;;;59.75;35.65;;;;;;;2.06;85.64;99996.89;124818;1101;65080;-85
2020/12/19 09:03:25;;;;;;;57.63;34.43;;;;;;;2.08;85.47;99988.08;124852;1101;65128;-83
2020/12/19 09:06:02;;;;;;;74.47;58.13;;;;;;;2.11;85.06;99989.80;124776;1101;65134;-82
2020/12/19 09:08:48;;;;;;;77.10;64.20;;;;;;;2.06;85.36;99986.37;124780;1101;65143;-82
2020/12/19 09:11:28;;;;;;;73.97;57.67;;;;;;;2.11;85.42;99997.68;124759;1101;65284;-82
2020/12/19 09:14:12;;;;;;;69.70;48.53;;;;;;;2.15;85.14;99984.44;124809;1101;65154;-82
2020/12/19 09:16:55;;;;;;;58.65;38.30;;;;;;;2.22;85.10;99984.35;124804;1101;65252;-82
2020/12/19 09:19:21;;;;;;;58.80;37.47;;;;;;;2.28;85.24;99987.73;124807;1101;65156;-81
2020/12/19 09:21:57;;;;;;;55.63;31.37;;;;;;;2.32;85.00;99985.94;124849;1101;65153;-81
2020/12/19 09:24:24;;;;;;;53.73;31.67;;;;;;;2.37;84.87;99977.06;124770;1101;65159;-81
2020/12/19 09:26:51;;;;;;;54.70;32.37;;;;;;;2.43;84.93;99970.82;124788;1100;65253;-81
2020/12/19 09:29:18;;;;;;;55.63;32.13;;;;;;;2.49;84.96;99970.70;124880;1098;65277;-81
2020/12/19 09:31:44;;;;;;;45.73;27.23;;;;;;;2.59;84.77;99966.14;124775;1100;65143;-81
2020/12/19 09:34:12;;;;;;;51.10;28.27;;;;;;;2.66;85.05;99961.61;124817;1100;65199;-81
2020/12/19 09:36:38;;;;;;;53.80;31.27;;;;;;;2.74;84.49;99951.80;124772;1100;65265;-81
2020/12/19 09:39:05;;;;;;;53.30;32.53;;;;;;;2.80;84.66;99957.83;125333;1098;65236;-81
2020/12/19 09:41:32;;;;;;;62.15;36.00;;;;;;;2.83;84.62;99946.37;124901;1100;65150;-81
2020/12/19 09:43:59;;;;;;;51.50;29.40;;;;;;;2.77;83.76;99941.23;124862;1099;65127;-81
2020/12/19 09:46:25;;;;;;;53.60;30.07;;;;;;;2.62;83.83;99945.88;125293;1098;65125;-81
2020/12/19 09:48:52;;;;;;;45.03;28.43;;;;;;;2.59;84.34;99935.42;124798;1100;65153;-81
2020/12/19 09:51:18;;;;;;;48.03;28.03;;;;;;;2.67;84.61;99930.02;124776;1100;65126;-81
2020/12/19 09:53:45;;;;;;;53.23;29.83;;;;;;;2.80;84.29;99928.01;124790;1100;65143;-81
2020/12/19 09:56:12;;;;;;;45.17;25.97;;;;;;;2.91;84.10;99930.42;125306;1098;65153;-81
2020/12/19 09:58:38;;;;;;;43.70;24.93;;;;;;;3.00;84.40;99922.31;124824;1100;65184;-81
2020/12/19 10:01:05;;;;;;;43.20;24.13;;;;;;;3.02;84.23;99915.25;124758;1100;65252;-81
2020/12/19 10:03:31;;;;;;;47.60;26.83;;;;;;;3.05;84.24;99925.72;125312;1098;65229;-81
2020/12/19 10:05:58;;;;;;;50.53;24.20;;;;;;;3.08;84.25;99926.53;124793;1100;65193;-81
2020/12/19 10:08:24;;;;;;;40.93;24.60;;;;;;;3.09;84.12;99922.13;124798;1100;65249;-81
2020/12/19 10:10:51;;;;;;;38.77;24.17;;;;;;;3.11;83.82;99922.08;124844;1100;65586;-81
2020/12/19 10:13:17;;;;;;;46.02;27.27;;;;;;;3.14;84.13;99917.63;124841;1100;65146;-82
2020/12/19 10:15:44;;;;;;;37.70;25.20;;;;;;;3.21;84.26;99919.23;124813;1100;65144;-82
2020/12/19 10:18:11;;;;;;;41.50;24.47;;;;;;;3.28;84.35;99922.59;124786;1100;65147;-82
2020/12/19 10:20:37;;;;;;;46.63;26.13;;;;;;;3.32;84.00;99919.00;124827;1100;65150;-82
2020/12/19 10:23:03;;;;;;;42.77;25.57;;;;;;;3.39;83.81;99924.98;125327;1099;65191;-82
2020/12/19 10:25:30;;;;;;;41.00;23.10;;;;;;;3.41;83.76;99920.55;124911;1100;65268;-82
2020/12/19 10:27:56;;;;;;;42.20;22.60;;;;;;;3.39;83.38;99914.44;125163;1100;65268;-81
2020/12/19 10:30:23;;;;;;;41.60;24.53;;;;;;;3.30;83.69;99907.63;124805;1098;65207;-81
2020/12/19 10:32:49;;;;;;;42.93;26.10;;;;;;;3.30;83.56;99907.63;124766;1100;65610;-81
2020/12/19 10:35:16;;;;;;;49.73;29.77;;;;;;;3.39;83.63;99910.03;125278;1098;65084;-81
2020/12/19 10:37:42;;;;;;;45.12;28.00;;;;;;;3.41;83.75;99907.38;124828;1100;65223;-81
2020/12/19 10:40:09;;;;;;;48.97;27.33;;;;;;;3.43;83.44;99909.07;124845;1100;65141;-82
2020/12/19 10:42:35;;;;;;;46.83;25.43;;;;;;;3.43;83.59;99903.80;125275;1098;65147;-81
2020/12/19 10:45:01;;;;;;;45.27;25.23;;;;;;;3.42;83.45;99904.72;125257;1098;65140;-81
2020/12/19 10:47:28;;;;;;;42.67;24.90;;;;;;;3.42;83.59;99907.35;124853;1099;65134;-83
2020/12/19 10:49:54;;;;;;;43.47;25.00;;;;;;;3.38;83.53;99895.13;125299;1099;65128;-81
2020/12/19 10:52:21;;;;;;;39.53;23.37;;;;;;;3.38;83.45;99897.77;125317;1098;65598;-82
2020/12/19 10:54:47;;;;;;;40.20;24.67;;;;;;;3.43;83.58;99902.94;124811;1100;65168;-82
2020/12/19 10:57:13;;;;;;;41.23;24.87;;;;;;;3.48;83.48;99896.66;124860;1100;65198;-82
2020/12/19 10:59:40;;;;;;;40.33;25.20;;;;;;;3.48;83.45;99891.39;124810;1100;65160;-82
2020/12/19 11:02:06;;;;;;;45.20;25.13;;;;;;;3.41;83.29;99897.70;125304;1098;65277;-82
2020/12/19 11:04:33;;;;;;;41.80;24.23;;;;;;;3.42;83.59;99895.92;124892;1100;65102;-82
2020/12/19 11:07:00;;;;;;;43.50;24.87;;;;;;;3.40;83.27;99888.06;124840;1098;65131;-82
2020/12/19 11:09:26;;;;;;;38.37;24.07;;;;;;;3.36;83.70;99888.17;124800;1100;65140;-82
2020/12/19 11:11:53;;;;;;;42.37;25.00;;;;;;;3.41;83.77;99881.88;125283;1098;65290;-82
2020/12/19 11:14:21;;;;;;;36.13;23.00;;;;;;;3.46;83.50;99884.42;125314;1098;65152;-82
2020/12/19 11:16:49;;;;;;;32.77;22.53;;;;;;;3.43;83.23;99887.13;124832;1100;65153;-82
2020/12/19 11:19:15;;;;;;;35.20;21.67;;;;;;;3.44;83.46;99881.80;125311;1098;65239;-82